< < Back
Terminal Aerodrome Forecast


Current Version              Previous Versions:   1  2  3  4  5  6  7  8  9  

Terminal Aerodrome Forecast

055
FTUS42 KMLB 250409 AAA
TAFDAB
TAF AMD
KDAB 250409Z 2504/2524 18005KT P6SM VCSH FEW035 BKN090
     FM250700 18003KT P6SM SCT120 BKN250
     FM251500 22006KT P6SM FEW030
     FM251700 11008KT P6SM SCT030=



Latest METAR

086
SAUS80 KWBC 260300 RRZ
MTRDAB
METAR KDAB 260153Z 00000KT 10SM CLR 28/25 A3008 RMK AO2 SLP185
T02830250


USA.gov is the U.S. government's official web portal to all federal, state and local government web resources and services.